GSIRT EGCB-EGCB
Flight info
| Callsign | GSIRT |
|---|---|
| Flight time | 1h 38m |
| Altitude | 1500 |
| Route | VFR |
| Aircraft | A109/L-VGD/C |
Departure
| Time | 2026-05-05 15:00 |
|---|---|
| Airport | Manchester Barton Aerodrome (EGCB) |
Arrival
| Time | 2026-05-05 16:38 |
|---|---|
| Airport | Manchester Barton Aerodrome (EGCB) |
| Time | Latitude | Longitude | Altitude | Speed | Heading |
|---|---|---|---|---|---|
| 2026-05-05 14:36 | 53.46793 | -2.39321 | 73 ft | 0 kts | 301° |
| 2026-05-05 14:58 | 53.46793 | -2.39322 | 74 ft | 0 kts | 308° |
| 2026-05-05 14:58 | 53.46793 | -2.39323 | 80 ft | 0 kts | 307° |
| 2026-05-05 14:59 | 53.46795 | -2.39321 | 93 ft | 1 kts | 309° |
| 2026-05-05 14:59 | 53.46788 | -2.39307 | 136 ft | 5 kts | 309° |
| 2026-05-05 14:59 | 53.46807 | -2.39347 | 258 ft | 21 kts | 314° |
| 2026-05-05 14:59 | 53.47015 | -2.39672 | 421 ft | 63 kts | 315° |
| 2026-05-05 15:00 | 53.47418 | -2.40372 | 480 ft | 101 kts | 310° |
| 2026-05-05 15:00 | 53.47684 | -2.41044 | 614 ft | 101 kts | 287° |
| 2026-05-05 15:00 | 53.47266 | -2.42150 | 965 ft | 97 kts | 195° |
| 2026-05-05 15:00 | 53.46558 | -2.42172 | 970 ft | 108 kts | 178° |
| 2026-05-05 15:01 | 53.45776 | -2.42106 | 920 ft | 119 kts | 178° |
| 2026-05-05 15:01 | 53.44933 | -2.42015 | 914 ft | 120 kts | 176° |
| 2026-05-05 15:01 | 53.44157 | -2.41920 | 926 ft | 103 kts | 177° |
| 2026-05-05 15:01 | 53.43467 | -2.41826 | 941 ft | 97 kts | 178° |
| 2026-05-05 15:02 | 53.42793 | -2.41729 | 959 ft | 97 kts | 177° |
| 2026-05-05 15:02 | 53.42117 | -2.41642 | 966 ft | 98 kts | 177° |
| 2026-05-05 15:02 | 53.41435 | -2.41556 | 972 ft | 98 kts | 176° |
| 2026-05-05 15:02 | 53.40752 | -2.41467 | 976 ft | 98 kts | 177° |
| 2026-05-05 15:03 | 53.40070 | -2.41357 | 976 ft | 98 kts | 168° |
| 2026-05-05 15:03 | 53.39439 | -2.40926 | 985 ft | 98 kts | 154° |
| 2026-05-05 15:03 | 53.38824 | -2.40430 | 986 ft | 98 kts | 154° |
| 2026-05-05 15:03 | 53.38203 | -2.39930 | 986 ft | 98 kts | 154° |
| 2026-05-05 15:04 | 53.37588 | -2.39442 | 985 ft | 98 kts | 155° |
| 2026-05-05 15:04 | 53.36958 | -2.38989 | 985 ft | 98 kts | 159° |
| 2026-05-05 15:04 | 53.36299 | -2.38635 | 985 ft | 98 kts | 165° |
| 2026-05-05 15:04 | 53.35649 | -2.38322 | 984 ft | 98 kts | 165° |
| 2026-05-05 15:05 | 53.34307 | -2.37902 | 984 ft | 98 kts | 175° |
| 2026-05-05 15:05 | 53.33632 | -2.37768 | 985 ft | 98 kts | 175° |
| 2026-05-05 15:05 | 53.32951 | -2.37638 | 983 ft | 98 kts | 175° |
| 2026-05-05 15:06 | 53.32201 | -2.37504 | 964 ft | 120 kts | 176° |
| 2026-05-05 15:06 | 53.31276 | -2.37349 | 960 ft | 146 kts | 176° |
| 2026-05-05 15:06 | 53.30219 | -2.37164 | 988 ft | 156 kts | 174° |
| 2026-05-05 15:06 | 53.29140 | -2.37353 | 979 ft | 162 kts | 205° |
| 2026-05-05 15:07 | 53.28171 | -2.38284 | 984 ft | 159 kts | 217° |
| 2026-05-05 15:07 | 53.27271 | -2.39368 | 981 ft | 160 kts | 219° |
| 2026-05-05 15:07 | 53.26389 | -2.40524 | 981 ft | 159 kts | 223° |
| 2026-05-05 15:07 | 53.25552 | -2.41728 | 981 ft | 159 kts | 224° |
| 2026-05-05 15:08 | 53.24720 | -2.42937 | 981 ft | 159 kts | 224° |
| 2026-05-05 15:08 | 53.23884 | -2.44149 | 983 ft | 159 kts | 223° |
| 2026-05-05 15:08 | 53.23036 | -2.45347 | 984 ft | 160 kts | 223° |
| 2026-05-05 15:08 | 53.22189 | -2.46539 | 985 ft | 159 kts | 223° |
| 2026-05-05 15:09 | 53.21343 | -2.47728 | 984 ft | 159 kts | 223° |
| 2026-05-05 15:09 | 53.20490 | -2.48919 | 983 ft | 160 kts | 222° |
| 2026-05-05 15:09 | 53.19615 | -2.50071 | 984 ft | 161 kts | 220° |
| 2026-05-05 15:09 | 53.18530 | -2.50568 | 997 ft | 166 kts | 180° |
| 2026-05-05 15:10 | 53.17390 | -2.50479 | 979 ft | 164 kts | 177° |
| 2026-05-05 15:10 | 53.16250 | -2.50342 | 980 ft | 165 kts | 177° |
| 2026-05-05 15:10 | 53.15099 | -2.50214 | 984 ft | 165 kts | 177° |
| 2026-05-05 15:10 | 53.13953 | -2.50096 | 986 ft | 165 kts | 178° |
| 2026-05-05 15:11 | 53.12804 | -2.49997 | 986 ft | 165 kts | 180° |
| 2026-05-05 15:11 | 53.11644 | -2.49995 | 986 ft | 165 kts | 182° |
| 2026-05-05 15:11 | 53.10493 | -2.50015 | 1107 ft | 165 kts | 183° |
| 2026-05-05 15:11 | 53.09340 | -2.50045 | 1281 ft | 167 kts | 182° |
| 2026-05-05 15:12 | 53.08183 | -2.50078 | 1379 ft | 168 kts | 182° |
| 2026-05-05 15:12 | 53.07010 | -2.50105 | 1421 ft | 169 kts | 182° |
| 2026-05-05 15:12 | 53.05835 | -2.50135 | 1440 ft | 169 kts | 182° |
| 2026-05-05 15:12 | 53.04659 | -2.50173 | 1449 ft | 169 kts | 182° |
| 2026-05-05 15:13 | 53.03475 | -2.50220 | 1454 ft | 170 kts | 182° |
| 2026-05-05 15:13 | 53.02278 | -2.50270 | 1454 ft | 171 kts | 182° |
| 2026-05-05 15:13 | 53.01094 | -2.50312 | 1452 ft | 171 kts | 182° |
| 2026-05-05 15:13 | 52.99912 | -2.50345 | 1450 ft | 171 kts | 182° |
| 2026-05-05 15:14 | 52.98711 | -2.50377 | 1448 ft | 170 kts | 182° |
| 2026-05-05 15:14 | 52.97532 | -2.50406 | 1444 ft | 170 kts | 182° |
| 2026-05-05 15:14 | 52.96346 | -2.50432 | 1443 ft | 170 kts | 182° |
| 2026-05-05 15:14 | 52.95181 | -2.50459 | 1441 ft | 169 kts | 182° |
| 2026-05-05 15:15 | 52.93988 | -2.50487 | 1441 ft | 169 kts | 182° |
| 2026-05-05 15:15 | 52.92818 | -2.50513 | 1440 ft | 169 kts | 182° |
| 2026-05-05 15:15 | 52.91643 | -2.50541 | 1439 ft | 169 kts | 182° |
| 2026-05-05 15:15 | 52.90461 | -2.50569 | 1439 ft | 170 kts | 182° |
| 2026-05-05 15:16 | 52.89270 | -2.50602 | 1438 ft | 172 kts | 182° |
| 2026-05-05 15:16 | 52.88073 | -2.50636 | 1446 ft | 171 kts | 182° |
| 2026-05-05 15:16 | 52.86887 | -2.50669 | 1449 ft | 170 kts | 182° |
| 2026-05-05 15:16 | 52.85767 | -2.50676 | 1469 ft | 150 kts | 176° |
| 2026-05-05 15:17 | 52.84817 | -2.50543 | 1462 ft | 123 kts | 174° |
| 2026-05-05 15:17 | 52.84033 | -2.50409 | 1441 ft | 106 kts | 175° |
| 2026-05-05 15:17 | 52.83308 | -2.50278 | 1437 ft | 103 kts | 175° |
| 2026-05-05 15:17 | 52.82592 | -2.50147 | 1441 ft | 104 kts | 175° |
| 2026-05-05 15:18 | 52.81876 | -2.50237 | 1392 ft | 104 kts | 199° |
| 2026-05-05 15:18 | 52.81198 | -2.50501 | 1339 ft | 94 kts | 194° |
| 2026-05-05 15:18 | 52.80594 | -2.50647 | 1251 ft | 80 kts | 189° |
| 2026-05-05 15:18 | 52.80054 | -2.50594 | 1098 ft | 80 kts | 146° |
| 2026-05-05 15:19 | 52.79770 | -2.49873 | 985 ft | 77 kts | 103° |
| 2026-05-05 15:19 | 52.79373 | -2.49232 | 839 ft | 92 kts | 171° |
| 2026-05-05 15:19 | 52.78808 | -2.49648 | 741 ft | 93 kts | 248° |
| 2026-05-05 15:19 | 52.78951 | -2.50484 | 735 ft | 82 kts | 339° |
| 2026-05-05 15:20 | 52.79485 | -2.50585 | 594 ft | 71 kts | 1° |
| 2026-05-05 15:20 | 52.79923 | -2.50396 | 465 ft | 60 kts | 19° |
| 2026-05-05 15:20 | 52.80268 | -2.50161 | 359 ft | 50 kts | 19° |
| 2026-05-05 15:20 | 52.80580 | -2.49958 | 268 ft | 42 kts | 20° |
| 2026-05-05 15:21 | 52.80727 | -2.49857 | 222 ft | 4 kts | 88° |
| 2026-05-05 15:21 | 52.80717 | -2.49813 | 217 ft | 9 kts | 116° |
| 2026-05-05 15:21 | 52.80716 | -2.49794 | 217 ft | 1 kts | 253° |
| 2026-05-05 15:28 | 52.80715 | -2.49798 | 216 ft | 1 kts | 256° |
| 2026-05-05 15:28 | 52.80712 | -2.49829 | 217 ft | 4 kts | 262° |
| 2026-05-05 15:28 | 52.80719 | -2.49856 | 217 ft | 2 kts | 25° |
| 2026-05-05 15:28 | 52.80739 | -2.49841 | 218 ft | 2 kts | 28° |
| 2026-05-05 15:29 | 52.80743 | -2.49834 | 222 ft | 0 kts | 24° |
| 2026-05-05 15:29 | 52.80747 | -2.49834 | 231 ft | 0 kts | 25° |
| 2026-05-05 15:29 | 52.80740 | -2.49837 | 235 ft | 2 kts | 26° |
| 2026-05-05 15:29 | 52.80741 | -2.49837 | 255 ft | 3 kts | 26° |
| 2026-05-05 15:30 | 52.80825 | -2.49782 | 338 ft | 26 kts | 24° |
| 2026-05-05 15:30 | 52.81082 | -2.49584 | 406 ft | 54 kts | 25° |
| 2026-05-05 15:30 | 52.81468 | -2.49221 | 491 ft | 67 kts | 20° |
| 2026-05-05 15:30 | 52.81893 | -2.48994 | 557 ft | 61 kts | 11° |
| 2026-05-05 15:31 | 52.82312 | -2.48828 | 717 ft | 66 kts | 11° |
| 2026-05-05 15:31 | 52.82801 | -2.48637 | 893 ft | 79 kts | 10° |
| 2026-05-05 15:31 | 52.83355 | -2.48420 | 1079 ft | 81 kts | 9° |
| 2026-05-05 15:31 | 52.83899 | -2.48205 | 1255 ft | 80 kts | 10° |
| 2026-05-05 15:32 | 52.84433 | -2.47998 | 1358 ft | 78 kts | 9° |
| 2026-05-05 15:32 | 52.84964 | -2.47797 | 1400 ft | 79 kts | 10° |
| 2026-05-05 15:32 | 52.85508 | -2.47592 | 1420 ft | 79 kts | 10° |
| 2026-05-05 15:32 | 52.86075 | -2.47379 | 1411 ft | 94 kts | 11° |
| 2026-05-05 15:33 | 52.86811 | -2.47110 | 1406 ft | 120 kts | 11° |
| 2026-05-05 15:33 | 52.87705 | -2.46801 | 1427 ft | 137 kts | 9° |
| 2026-05-05 15:33 | 52.88658 | -2.46484 | 1429 ft | 143 kts | 9° |
| 2026-05-05 15:33 | 52.89639 | -2.46156 | 1435 ft | 146 kts | 9° |
| 2026-05-05 15:34 | 52.90647 | -2.45813 | 1595 ft | 146 kts | 11° |
| 2026-05-05 15:34 | 52.91642 | -2.45813 | 1729 ft | 148 kts | 340° |
| 2026-05-05 15:34 | 52.92317 | -2.46976 | 1926 ft | 139 kts | 302° |
| 2026-05-05 15:34 | 52.92722 | -2.48389 | 2085 ft | 134 kts | 300° |
| 2026-05-05 15:35 | 52.93106 | -2.49806 | 2258 ft | 136 kts | 300° |
| 2026-05-05 15:35 | 52.93499 | -2.51243 | 2434 ft | 138 kts | 300° |
| 2026-05-05 15:35 | 52.93905 | -2.52702 | 2611 ft | 139 kts | 300° |
| 2026-05-05 15:35 | 52.94311 | -2.54142 | 2787 ft | 139 kts | 300° |
| 2026-05-05 15:36 | 52.94729 | -2.55607 | 2930 ft | 139 kts | 300° |
| 2026-05-05 15:36 | 52.95141 | -2.57042 | 2990 ft | 139 kts | 300° |
| 2026-05-05 15:36 | 52.95559 | -2.58496 | 3018 ft | 139 kts | 300° |
| 2026-05-05 15:36 | 52.95973 | -2.59938 | 3028 ft | 139 kts | 300° |
| 2026-05-05 15:37 | 52.96390 | -2.61399 | 3033 ft | 139 kts | 300° |
| 2026-05-05 15:37 | 52.96799 | -2.62847 | 3036 ft | 140 kts | 300° |
| 2026-05-05 15:37 | 52.97213 | -2.64310 | 3038 ft | 140 kts | 300° |
| 2026-05-05 15:37 | 52.97639 | -2.65801 | 3029 ft | 145 kts | 300° |
| 2026-05-05 15:38 | 52.98082 | -2.67346 | 3032 ft | 152 kts | 300° |
| 2026-05-05 15:38 | 52.98552 | -2.68958 | 3038 ft | 157 kts | 299° |
| 2026-05-05 15:38 | 52.99032 | -2.70602 | 3044 ft | 157 kts | 300° |
| 2026-05-05 15:38 | 52.99798 | -2.71782 | 3053 ft | 151 kts | 336° |
| 2026-05-05 15:39 | 53.00670 | -2.72730 | 3042 ft | 151 kts | 321° |
| 2026-05-05 15:39 | 53.01445 | -2.73926 | 3042 ft | 151 kts | 321° |
| 2026-05-05 15:39 | 53.02240 | -2.75060 | 3044 ft | 152 kts | 322° |
| 2026-05-05 15:39 | 53.03043 | -2.76221 | 3051 ft | 152 kts | 322° |
| 2026-05-05 15:40 | 53.03830 | -2.77366 | 3071 ft | 151 kts | 322° |
| 2026-05-05 15:40 | 53.04631 | -2.78530 | 3081 ft | 151 kts | 321° |
| 2026-05-05 15:40 | 53.05419 | -2.79681 | 3085 ft | 151 kts | 321° |
| 2026-05-05 15:40 | 53.06206 | -2.80826 | 3085 ft | 151 kts | 321° |
| 2026-05-05 15:41 | 53.07005 | -2.81990 | 3086 ft | 152 kts | 321° |
| 2026-05-05 15:41 | 53.07801 | -2.83152 | 3087 ft | 153 kts | 321° |
| 2026-05-05 15:41 | 53.08599 | -2.84315 | 3089 ft | 153 kts | 321° |
| 2026-05-05 15:41 | 53.09398 | -2.85481 | 3090 ft | 153 kts | 321° |
| 2026-05-05 15:42 | 53.10205 | -2.86656 | 3085 ft | 154 kts | 322° |
| 2026-05-05 15:42 | 53.10988 | -2.87780 | 3119 ft | 140 kts | 321° |
| 2026-05-05 15:42 | 53.11680 | -2.88800 | 3095 ft | 128 kts | 322° |
| 2026-05-05 15:42 | 53.12344 | -2.89771 | 3086 ft | 125 kts | 323° |
| 2026-05-05 15:43 | 53.12995 | -2.90723 | 3089 ft | 126 kts | 322° |
| 2026-05-05 15:43 | 53.13658 | -2.91695 | 3092 ft | 126 kts | 322° |
| 2026-05-05 15:43 | 53.14311 | -2.92651 | 3093 ft | 126 kts | 322° |
| 2026-05-05 15:43 | 53.14977 | -2.93621 | 3094 ft | 126 kts | 322° |
| 2026-05-05 15:44 | 53.15638 | -2.94583 | 3094 ft | 126 kts | 323° |
| 2026-05-05 15:44 | 53.16304 | -2.95555 | 3095 ft | 127 kts | 322° |
| 2026-05-05 15:44 | 53.16990 | -2.96466 | 3096 ft | 127 kts | 327° |
| 2026-05-05 15:44 | 53.17771 | -2.97104 | 3098 ft | 124 kts | 345° |
| 2026-05-05 15:45 | 53.18611 | -2.97432 | 3095 ft | 123 kts | 349° |
| 2026-05-05 15:45 | 53.19453 | -2.97693 | 3095 ft | 124 kts | 355° |
| 2026-05-05 15:45 | 53.20309 | -2.97629 | 3098 ft | 123 kts | 7° |
| 2026-05-05 15:45 | 53.21167 | -2.97450 | 3097 ft | 122 kts | 7° |
| 2026-05-05 15:46 | 53.22009 | -2.97287 | 3096 ft | 122 kts | 7° |
| 2026-05-05 15:46 | 53.22857 | -2.97124 | 3097 ft | 122 kts | 7° |
| 2026-05-05 15:46 | 53.23676 | -2.96829 | 3090 ft | 123 kts | 29° |
| 2026-05-05 15:46 | 53.24179 | -2.95676 | 3096 ft | 128 kts | 72° |
| 2026-05-05 15:47 | 53.24031 | -2.94198 | 3095 ft | 137 kts | 116° |
| 2026-05-05 15:47 | 53.23574 | -2.93439 | 3096 ft | 143 kts | 145° |
| 2026-05-05 15:47 | 53.22271 | -2.93291 | 3097 ft | 147 kts | 203° |
| 2026-05-05 15:47 | 53.21385 | -2.94113 | 3095 ft | 146 kts | 215° |
| 2026-05-05 15:48 | 53.20538 | -2.95063 | 3097 ft | 147 kts | 216° |
| 2026-05-05 15:48 | 53.19691 | -2.96025 | 3098 ft | 146 kts | 216° |
| 2026-05-05 15:48 | 53.18859 | -2.96951 | 3097 ft | 146 kts | 215° |
| 2026-05-05 15:48 | 53.18005 | -2.97880 | 3096 ft | 146 kts | 215° |
| 2026-05-05 15:49 | 53.17208 | -2.98931 | 3098 ft | 145 kts | 227° |
| 2026-05-05 15:49 | 53.16522 | -3.00151 | 3096 ft | 145 kts | 231° |
| 2026-05-05 15:49 | 53.15859 | -3.01409 | 3095 ft | 145 kts | 232° |
| 2026-05-05 15:49 | 53.15192 | -3.02674 | 3095 ft | 145 kts | 232° |
| 2026-05-05 15:50 | 53.14539 | -3.03962 | 3096 ft | 144 kts | 234° |
| 2026-05-05 15:50 | 53.13904 | -3.05246 | 3095 ft | 144 kts | 234° |
| 2026-05-05 15:50 | 53.13263 | -3.06532 | 3094 ft | 145 kts | 232° |
| 2026-05-05 15:50 | 53.12591 | -3.07810 | 3095 ft | 145 kts | 232° |
| 2026-05-05 15:51 | 53.11932 | -3.09050 | 3095 ft | 143 kts | 232° |
| 2026-05-05 15:51 | 53.11270 | -3.10287 | 3094 ft | 143 kts | 230° |
| 2026-05-05 15:51 | 53.10585 | -3.11505 | 3093 ft | 143 kts | 230° |
| 2026-05-05 15:51 | 53.09905 | -3.12696 | 3092 ft | 144 kts | 230° |
| 2026-05-05 15:52 | 53.09208 | -3.13914 | 3092 ft | 145 kts | 230° |
| 2026-05-05 15:52 | 53.08514 | -3.15126 | 3092 ft | 145 kts | 230° |
| 2026-05-05 15:52 | 53.07825 | -3.16335 | 3093 ft | 145 kts | 230° |
| 2026-05-05 15:52 | 53.07135 | -3.17549 | 3091 ft | 145 kts | 230° |
| 2026-05-05 15:53 | 53.06443 | -3.18766 | 3093 ft | 145 kts | 230° |
| 2026-05-05 15:53 | 53.05726 | -3.19957 | 3081 ft | 148 kts | 218° |
| 2026-05-05 15:53 | 53.04749 | -3.20327 | 3097 ft | 146 kts | 168° |
| 2026-05-05 15:53 | 53.03936 | -3.19460 | 3087 ft | 139 kts | 120° |
| 2026-05-05 15:54 | 53.03771 | -3.17954 | 3097 ft | 131 kts | 75° |
| 2026-05-05 15:54 | 53.04023 | -3.16531 | 3090 ft | 129 kts | 63° |
| 2026-05-05 15:54 | 53.04463 | -3.15256 | 3092 ft | 127 kts | 43° |
| 2026-05-05 15:54 | 53.05157 | -3.14368 | 3093 ft | 124 kts | 33° |
| 2026-05-05 15:55 | 53.05841 | -3.13515 | 3090 ft | 120 kts | 36° |
| 2026-05-05 15:55 | 53.06499 | -3.12648 | 3078 ft | 122 kts | 36° |
| 2026-05-05 15:55 | 53.07142 | -3.11811 | 3101 ft | 110 kts | 34° |
| 2026-05-05 15:55 | 53.07711 | -3.11053 | 3087 ft | 103 kts | 35° |
| 2026-05-05 15:56 | 53.08275 | -3.10317 | 2892 ft | 103 kts | 33° |
| 2026-05-05 15:56 | 53.08840 | -3.09580 | 2594 ft | 103 kts | 34° |
| 2026-05-05 15:56 | 53.09370 | -3.08885 | 2414 ft | 90 kts | 33° |
| 2026-05-05 15:56 | 53.09832 | -3.08279 | 2244 ft | 82 kts | 33° |
| 2026-05-05 15:57 | 53.10281 | -3.07693 | 2094 ft | 82 kts | 33° |
| 2026-05-05 15:57 | 53.10728 | -3.07103 | 1954 ft | 82 kts | 32° |
| 2026-05-05 15:57 | 53.11173 | -3.06521 | 1821 ft | 81 kts | 32° |
| 2026-05-05 15:57 | 53.11617 | -3.05939 | 1690 ft | 81 kts | 33° |
| 2026-05-05 15:58 | 53.12066 | -3.05353 | 1559 ft | 82 kts | 33° |
| 2026-05-05 15:58 | 53.12519 | -3.04762 | 1430 ft | 83 kts | 33° |
| 2026-05-05 15:58 | 53.12973 | -3.04165 | 1303 ft | 83 kts | 33° |
| 2026-05-05 15:58 | 53.13425 | -3.03571 | 1176 ft | 84 kts | 32° |
| 2026-05-05 15:59 | 53.13884 | -3.02967 | 1047 ft | 84 kts | 32° |
| 2026-05-05 15:59 | 53.14347 | -3.02364 | 919 ft | 84 kts | 32° |
| 2026-05-05 15:59 | 53.14809 | -3.01758 | 789 ft | 85 kts | 32° |
| 2026-05-05 15:59 | 53.15278 | -3.01142 | 667 ft | 85 kts | 34° |
| 2026-05-05 16:00 | 53.15728 | -3.00556 | 875 ft | 83 kts | 34° |
| 2026-05-05 16:00 | 53.16185 | -2.99948 | 1120 ft | 84 kts | 32° |
| 2026-05-05 16:00 | 53.16640 | -2.99344 | 1112 ft | 83 kts | 32° |
| 2026-05-05 16:00 | 53.17112 | -2.98729 | 1106 ft | 85 kts | 32° |
| 2026-05-05 16:01 | 53.17575 | -2.98134 | 1080 ft | 84 kts | 32° |
| 2026-05-05 16:01 | 53.17847 | -2.97758 | 1071 ft | 85 kts | 36° |
| 2026-05-05 16:02 | 53.18112 | -2.97357 | 1079 ft | 85 kts | 37° |
| 2026-05-05 16:02 | 53.18617 | -2.96917 | 1004 ft | 87 kts | 345° |
| 2026-05-05 16:02 | 53.18914 | -2.97717 | 973 ft | 89 kts | 273° |
| 2026-05-05 16:03 | 53.18583 | -2.98573 | 907 ft | 92 kts | 225° |
| 2026-05-05 16:03 | 53.18106 | -2.99242 | 846 ft | 88 kts | 226° |
| 2026-05-05 16:03 | 53.17631 | -2.99880 | 779 ft | 87 kts | 224° |
| 2026-05-05 16:03 | 53.17061 | -2.99932 | 654 ft | 85 kts | 132° |
| 2026-05-05 16:04 | 53.17004 | -2.99051 | 362 ft | 83 kts | 60° |
| 2026-05-05 16:04 | 53.17394 | -2.98373 | 71 ft | 80 kts | 39° |
| 2026-05-05 16:04 | 53.17705 | -2.97924 | 23 ft | 18 kts | 41° |
| 2026-05-05 16:04 | 53.17757 | -2.97937 | 23 ft | 8 kts | 317° |
| 2026-05-05 16:05 | 53.17802 | -2.98018 | 23 ft | 10 kts | 315° |
| 2026-05-05 16:05 | 53.17856 | -2.98107 | 24 ft | 11 kts | 309° |
| 2026-05-05 16:05 | 53.17911 | -2.98215 | 24 ft | 12 kts | 310° |
| 2026-05-05 16:05 | 53.17989 | -2.98290 | 24 ft | 14 kts | 357° |
| 2026-05-05 16:06 | 53.18015 | -2.98280 | 24 ft | 1 kts | 146° |
| 2026-05-05 16:06 | 53.18014 | -2.98279 | 24 ft | 0 kts | 146° |
| 2026-05-05 16:08 | 53.18007 | -2.98270 | 24 ft | 2 kts | 142° |
| 2026-05-05 16:08 | 53.18003 | -2.98265 | 24 ft | 0 kts | 142° |
| 2026-05-05 16:08 | 53.17994 | -2.98272 | 24 ft | 2 kts | 235° |
| 2026-05-05 16:08 | 53.17971 | -2.98277 | 24 ft | 5 kts | 177° |
| 2026-05-05 16:09 | 53.17932 | -2.98272 | 25 ft | 3 kts | 255° |
| 2026-05-05 16:09 | 53.17937 | -2.98267 | 33 ft | 2 kts | 345° |
| 2026-05-05 16:09 | 53.17919 | -2.98265 | 87 ft | 5 kts | 339° |
| 2026-05-05 16:09 | 53.17914 | -2.98264 | 197 ft | 7 kts | 347° |
| 2026-05-05 16:10 | 53.18124 | -2.98199 | 351 ft | 56 kts | 25° |
| 2026-05-05 16:10 | 53.18412 | -2.97597 | 536 ft | 79 kts | 70° |
| 2026-05-05 16:10 | 53.18440 | -2.96554 | 727 ft | 105 kts | 86° |
| 2026-05-05 16:10 | 53.18397 | -2.95278 | 959 ft | 109 kts | 84° |
| 2026-05-05 16:11 | 53.18351 | -2.94077 | 1135 ft | 100 kts | 85° |
| 2026-05-05 16:11 | 53.17947 | -2.90416 | 1420 ft | 124 kts | 99° |
| 2026-05-05 16:12 | 53.17709 | -2.89007 | 1448 ft | 126 kts | 99° |
| 2026-05-05 16:12 | 53.17247 | -2.86221 | 1452 ft | 125 kts | 99° |
| 2026-05-05 16:13 | 53.16562 | -2.81996 | 1453 ft | 126 kts | 99° |
| 2026-05-05 16:13 | 53.16334 | -2.80593 | 1454 ft | 125 kts | 99° |
| 2026-05-05 16:13 | 53.16103 | -2.79181 | 1438 ft | 127 kts | 101° |
| 2026-05-05 16:14 | 53.15595 | -2.75945 | 1453 ft | 155 kts | 99° |
| 2026-05-05 16:14 | 53.15056 | -2.72350 | 1454 ft | 161 kts | 99° |
| 2026-05-05 16:15 | 53.14548 | -2.68729 | 1451 ft | 160 kts | 95° |
| 2026-05-05 16:15 | 53.14205 | -2.65053 | 1449 ft | 160 kts | 94° |
| 2026-05-05 16:16 | 53.13863 | -2.61405 | 1450 ft | 159 kts | 94° |
| 2026-05-05 16:16 | 53.13517 | -2.57802 | 1449 ft | 158 kts | 95° |
| 2026-05-05 16:17 | 53.13218 | -2.54127 | 1450 ft | 158 kts | 85° |
| 2026-05-05 16:17 | 53.13236 | -2.52310 | 1448 ft | 157 kts | 84° |
| 2026-05-05 16:18 | 53.13289 | -2.48685 | 1444 ft | 157 kts | 84° |
| 2026-05-05 16:18 | 53.13315 | -2.46879 | 1442 ft | 156 kts | 84° |
| 2026-05-05 16:18 | 53.13392 | -2.43276 | 1439 ft | 156 kts | 83° |
| 2026-05-05 16:19 | 53.13433 | -2.41481 | 1440 ft | 156 kts | 83° |
| 2026-05-05 16:19 | 53.13469 | -2.39680 | 1437 ft | 156 kts | 83° |
| 2026-05-05 16:19 | 53.13715 | -2.36170 | 1437 ft | 154 kts | 56° |
| 2026-05-05 16:20 | 53.15478 | -2.34544 | 1215 ft | 146 kts | 20° |
| 2026-05-05 16:20 | 53.17364 | -2.33718 | 1164 ft | 123 kts | 9° |
| 2026-05-05 16:21 | 53.18935 | -2.33213 | 1167 ft | 113 kts | 14° |
| 2026-05-05 16:22 | 53.21208 | -2.32153 | 1171 ft | 112 kts | 15° |
| 2026-05-05 16:22 | 53.22731 | -2.31419 | 1173 ft | 114 kts | 14° |
| 2026-05-05 16:23 | 53.24300 | -2.31124 | 1177 ft | 114 kts | 359° |
| 2026-05-05 16:23 | 53.25098 | -2.31105 | 1177 ft | 114 kts | 359° |
| 2026-05-05 16:23 | 53.26684 | -2.31094 | 1181 ft | 114 kts | 360° |
| 2026-05-05 16:24 | 53.27480 | -2.31074 | 1182 ft | 115 kts | 1° |
| 2026-05-05 16:24 | 53.28279 | -2.30930 | 1184 ft | 115 kts | 6° |
| 2026-05-05 16:24 | 53.29865 | -2.30582 | 1186 ft | 114 kts | 7° |
| 2026-05-05 16:25 | 53.30654 | -2.30388 | 1187 ft | 114 kts | 8° |
| 2026-05-05 16:25 | 53.32230 | -2.30025 | 1186 ft | 114 kts | 7° |
| 2026-05-05 16:25 | 53.33015 | -2.29856 | 1185 ft | 114 kts | 6° |
| 2026-05-05 16:26 | 53.34583 | -2.29502 | 1184 ft | 114 kts | 6° |
| 2026-05-05 16:26 | 53.36159 | -2.29149 | 1183 ft | 114 kts | 7° |
| 2026-05-05 16:27 | 53.36953 | -2.28979 | 1182 ft | 114 kts | 6° |
| 2026-05-05 16:27 | 53.37739 | -2.28799 | 1182 ft | 114 kts | 7° |
| 2026-05-05 16:27 | 53.38514 | -2.28533 | 1185 ft | 115 kts | 19° |
| 2026-05-05 16:27 | 53.39247 | -2.27983 | 1183 ft | 114 kts | 26° |
| 2026-05-05 16:28 | 53.39953 | -2.27405 | 1184 ft | 114 kts | 25° |
| 2026-05-05 16:28 | 53.40667 | -2.26821 | 1183 ft | 113 kts | 24° |
| 2026-05-05 16:28 | 53.41379 | -2.26230 | 1179 ft | 114 kts | 26° |
| 2026-05-05 16:28 | 53.42091 | -2.25638 | 1181 ft | 114 kts | 24° |
| 2026-05-05 16:29 | 53.42828 | -2.25144 | 1201 ft | 110 kts | 18° |
| 2026-05-05 16:29 | 53.43478 | -2.24790 | 1191 ft | 90 kts | 17° |
| 2026-05-05 16:29 | 53.44051 | -2.24498 | 1181 ft | 84 kts | 19° |
| 2026-05-05 16:29 | 53.44611 | -2.24202 | 1182 ft | 84 kts | 17° |
| 2026-05-05 16:30 | 53.45182 | -2.23963 | 1184 ft | 84 kts | 12° |
| 2026-05-05 16:30 | 53.45764 | -2.23815 | 1185 ft | 83 kts | 6° |
| 2026-05-05 16:30 | 53.46336 | -2.23667 | 1187 ft | 83 kts | 17° |
| 2026-05-05 16:30 | 53.46861 | -2.23275 | 1184 ft | 82 kts | 25° |
| 2026-05-05 16:31 | 53.47374 | -2.22867 | 1181 ft | 82 kts | 23° |
| 2026-05-05 16:31 | 53.47932 | -2.22868 | 1189 ft | 81 kts | 346° |
| 2026-05-05 16:31 | 53.48415 | -2.23350 | 1187 ft | 81 kts | 320° |
| 2026-05-05 16:31 | 53.48761 | -2.24090 | 1194 ft | 81 kts | 294° |
| 2026-05-05 16:32 | 53.48589 | -2.24962 | 1215 ft | 85 kts | 220° |
| 2026-05-05 16:32 | 53.48079 | -2.25589 | 1121 ft | 98 kts | 217° |
| 2026-05-05 16:32 | 53.47493 | -2.26217 | 1071 ft | 98 kts | 196° |
| 2026-05-05 16:32 | 53.46923 | -2.25996 | 1164 ft | 78 kts | 127° |
| 2026-05-05 16:33 | 53.46829 | -2.25173 | 1131 ft | 76 kts | 69° |
| 2026-05-05 16:33 | 53.47024 | -2.24276 | 1041 ft | 86 kts | 63° |
| 2026-05-05 16:33 | 53.47246 | -2.23324 | 989 ft | 91 kts | 83° |
| 2026-05-05 16:33 | 53.46862 | -2.22566 | 983 ft | 98 kts | 174° |
| 2026-05-05 16:34 | 53.46356 | -2.23158 | 1121 ft | 93 kts | 262° |
| 2026-05-05 16:34 | 53.46642 | -2.23963 | 1197 ft | 85 kts | 345° |
| 2026-05-05 16:34 | 53.47223 | -2.24194 | 1181 ft | 88 kts | 349° |
| 2026-05-05 16:34 | 53.47857 | -2.24402 | 1147 ft | 94 kts | 352° |
| 2026-05-05 16:35 | 53.48523 | -2.24568 | 1139 ft | 99 kts | 353° |
| 2026-05-05 16:35 | 53.49226 | -2.24686 | 1126 ft | 103 kts | 357° |
| 2026-05-05 16:35 | 53.49958 | -2.24751 | 1128 ft | 106 kts | 359° |
| 2026-05-05 16:35 | 53.50701 | -2.24794 | 1138 ft | 108 kts | 359° |
| 2026-05-05 16:36 | 53.51459 | -2.24835 | 1146 ft | 109 kts | 359° |
| 2026-05-05 16:36 | 53.52222 | -2.24883 | 1155 ft | 110 kts | 0° |
| 2026-05-05 16:36 | 53.52981 | -2.24935 | 1168 ft | 110 kts | 1° |
| 2026-05-05 16:36 | 53.53688 | -2.25438 | 1181 ft | 117 kts | 316° |
| 2026-05-05 16:37 | 53.54001 | -2.26706 | 1185 ft | 123 kts | 276° |
| 2026-05-05 16:37 | 53.53961 | -2.28134 | 1180 ft | 124 kts | 270° |
| 2026-05-05 16:37 | 53.53874 | -2.29583 | 1175 ft | 125 kts | 268° |
| 2026-05-05 16:37 | 53.53788 | -2.30934 | 1197 ft | 102 kts | 268° |
| 2026-05-05 16:38 | 53.53712 | -2.31958 | 1190 ft | 75 kts | 269° |
| 2026-05-05 16:38 | 53.53633 | -2.32674 | 1173 ft | 52 kts | 272° |
| 2026-05-05 16:38 | 53.53539 | -2.33120 | 1164 ft | 26 kts | 272° |
| 2026-05-05 16:38 | 53.53538 | -2.33240 | 1099 ft | 7 kts | 274° |
| 2026-05-05 16:39 | 53.53544 | -2.33230 | 1122 ft | 3 kts | 273° |
| 2026-05-05 16:39 | 53.53545 | -2.33229 | 1123 ft | 1 kts | 273° |
| 2026-05-05 16:39 | 53.53545 | -2.33225 | 1124 ft | 0 kts | 221° |
| 2026-05-05 16:39 | 53.53547 | -2.33230 | 1125 ft | 0 kts | 220° |
| 2026-05-05 16:40 | 53.53519 | -2.33266 | 1136 ft | 13 kts | 220° |
| 2026-05-05 16:40 | 53.53379 | -2.33457 | 1156 ft | 40 kts | 219° |
| 2026-05-05 16:40 | 53.53077 | -2.33837 | 1156 ft | 67 kts | 220° |
| 2026-05-05 16:40 | 53.52662 | -2.34357 | 1159 ft | 79 kts | 219° |
| 2026-05-05 16:41 | 53.52213 | -2.34906 | 1154 ft | 78 kts | 219° |
| 2026-05-05 16:41 | 53.51777 | -2.35438 | 1150 ft | 78 kts | 218° |
| 2026-05-05 16:41 | 53.51337 | -2.35982 | 1149 ft | 78 kts | 220° |
| 2026-05-05 16:41 | 53.50900 | -2.36526 | 1150 ft | 78 kts | 220° |
| 2026-05-05 16:42 | 53.50466 | -2.37073 | 1136 ft | 78 kts | 219° |
| 2026-05-05 16:42 | 53.50028 | -2.37612 | 1098 ft | 77 kts | 221° |
| 2026-05-05 16:42 | 53.49572 | -2.38098 | 1078 ft | 79 kts | 198° |
| 2026-05-05 16:42 | 53.49049 | -2.38290 | 1075 ft | 77 kts | 190° |
| 2026-05-05 16:43 | 53.48516 | -2.38470 | 1068 ft | 79 kts | 205° |
| 2026-05-05 16:43 | 53.48179 | -2.39109 | 1071 ft | 72 kts | 260° |
| 2026-05-05 16:43 | 53.48071 | -2.39910 | 1069 ft | 72 kts | 265° |
| 2026-05-05 16:43 | 53.47977 | -2.40743 | 1067 ft | 71 kts | 265° |
| 2026-05-05 16:44 | 53.47838 | -2.41563 | 1031 ft | 80 kts | 237° |
| 2026-05-05 16:44 | 53.47309 | -2.41943 | 928 ft | 92 kts | 175° |
| 2026-05-05 16:44 | 53.46940 | -2.41326 | 728 ft | 74 kts | 71° |
| 2026-05-05 16:44 | 53.47060 | -2.40502 | 438 ft | 77 kts | 82° |
| 2026-05-05 16:45 | 53.47122 | -2.39651 | 215 ft | 65 kts | 84° |
| 2026-05-05 16:45 | 53.47163 | -2.39020 | 117 ft | 45 kts | 84° |
| 2026-05-05 16:45 | 53.47194 | -2.38675 | 109 ft | 1 kts | 186° |
| 2026-05-05 16:45 | 53.47163 | -2.38933 | 101 ft | 33 kts | 260° |
| 2026-05-05 16:46 | 53.47138 | -2.39250 | 96 ft | 21 kts | 259° |
| 2026-05-05 16:46 | 53.47112 | -2.39381 | 92 ft | 5 kts | 194° |
| 2026-05-05 16:46 | 53.47070 | -2.39383 | 89 ft | 9 kts | 185° |
| 2026-05-05 16:46 | 53.47010 | -2.39387 | 90 ft | 6 kts | 186° |
| 2026-05-05 16:47 | 53.46962 | -2.39385 | 89 ft | 7 kts | 169° |
| 2026-05-05 16:47 | 53.46914 | -2.39348 | 86 ft | 9 kts | 149° |
| 2026-05-05 16:47 | 53.46861 | -2.39288 | 83 ft | 5 kts | 166° |
| 2026-05-05 16:47 | 53.46840 | -2.39284 | 83 ft | 4 kts | 220° |
| 2026-05-05 16:48 | 53.46817 | -2.39313 | 78 ft | 2 kts | 216° |
| 2026-05-05 16:48 | 53.46814 | -2.39315 | 74 ft | 0 kts | 214° |
| 2026-05-05 16:48 | 53.46813 | -2.39315 | 73 ft | 0 kts | 213° |
| 2026-05-05 16:48 | 53.46807 | -2.39323 | 73 ft | 2 kts | 220° |
| 2026-05-05 16:49 | 53.46793 | -2.39311 | 74 ft | 1 kts | 124° |
| 2026-05-05 16:49 | 53.46791 | -2.39316 | 74 ft | 0 kts | 326° |